Pagrindinis puslapis
METAR-TAF:

METAR-TAF

Oro uostai :

Estešundas-Frösön, Švedija

platuma: 63-11N, ilguma: 014-30E, Aukštis: 376 m

Dabartinis oras

Ataskaita buvo paskelbta 24 minutes, ne 03:50 UTC
Vėjas 10 kt iš Vakarų
Temperatūra 9°C
Drėgmė 81%
Slėgis 1009 hPa
Matomumas 10 km arba daugiau

METAR: ESNZ 060350Z AUTO 27010KT 9999 FEW039/// BKN120/// 09/06 Q1009 REDZ

Laikas: 06:14 (04:14 UTC)

Prognozė

Ataskaita buvo paskelbta 16 valandos ir 44 minutes, ne 11:30 UTC
Prognozė galioja nuo 05 metu 12 UTC su 05 metu 14 UTC
Vėjas 13 kt iš Vakarų
Matomumas 10 km arba daugiau
Išsisklaidę debesys ne aukštis 3000 ft
Tikimybė 40%
nuo 05 metu 12 UTC su 05 metu 14 UTC
Išsisklaidę debesys ne aukštis 4000 ft, Liūtiniai kamuoliniai debesys.

TAF: ESNZ 051130Z 0512/0514 28013KT 9999 SCT030 PROB40 0512/0514 SCT040CB

Orai ataskaitas ir orų prognozės (METAR, TAF).

turimą stotys yra geltonos ir raudonos taškus žemėlapyje.

Perkelti pele per norėdami pamatyti stoties vardą.

Tada spustelėkite, norėdami matyti oro stebėjimo ir prognozės.

Norėdami pakeisti žemėlapį: spustelėkite ant žalios mygtukų su juodo kryžiaus žemyn,; žalią mygtuką su brūkšneliu, jei norite nutolinti; arba žalių rodyklių gretimoms žemėlapius.


METAR-TAF: